createdAt,value
2023-04-22T00:00:43.400Z,100554.16
2023-04-22T00:03:16.258Z,100547.50
2023-04-22T00:05:49.195Z,100551.84
2023-04-22T00:08:21.787Z,100553.06
2023-04-22T00:10:54.322Z,100555.59
2023-04-22T00:13:26.869Z,100546.44
2023-04-22T00:15:59.497Z,100550.50
2023-04-22T00:18:37.187Z,100541.34
2023-04-22T00:21:09.745Z,100548.19
2023-04-22T00:23:45.224Z,100549.44
2023-04-22T00:26:17.778Z,100542.31
2023-04-22T00:28:50.693Z,100543.59
2023-04-22T00:31:23.291Z,100539.22
2023-04-22T00:33:55.771Z,100542.03
2023-04-22T00:36:28.260Z,100542.03
2023-04-22T00:39:00.830Z,100540.50
2023-04-22T00:41:33.843Z,100537.41
2023-04-22T00:44:10.889Z,100536.16
2023-04-22T00:46:43.498Z,100541.75
2023-04-22T00:49:16.750Z,100540.22
2023-04-22T00:51:49.246Z,100529.53
2023-04-22T00:54:21.704Z,100532.78
2023-04-22T00:56:55.041Z,100534.81
2023-04-22T00:59:27.644Z,100541.16
2023-04-22T01:02:00.633Z,100545.22
2023-04-22T01:04:33.352Z,100542.91
2023-04-22T01:07:06.766Z,100537.31
2023-04-22T01:09:41.015Z,100536.56
2023-04-22T01:12:14.053Z,100529.41
2023-04-22T01:14:46.599Z,100527.91
2023-04-22T01:17:19.561Z,100526.38
2023-04-22T01:19:53.287Z,100526.38
2023-04-22T01:22:29.853Z,100520.78
2023-04-22T01:25:03.191Z,100516.44
2023-04-22T01:27:35.655Z,100516.91
2023-04-22T01:30:08.779Z,100528.09
2023-04-22T01:32:41.660Z,100525.78
2023-04-22T01:35:14.191Z,100518.66
2023-04-22T01:37:46.718Z,100520.22
2023-04-22T01:40:22.587Z,100517.13
2023-04-22T01:42:55.163Z,100514.34
2023-04-22T01:45:28.170Z,100519.16
2023-04-22T01:48:00.854Z,100523.19
2023-04-22T01:50:33.486Z,100519.63
2023-04-22T01:53:07.588Z,100518.09
2023-04-22T01:55:40.394Z,100514.53
2023-04-22T01:58:13.076Z,100517.78
2023-04-22T02:00:45.670Z,100509.41
2023-04-22T02:03:18.194Z,100514.25
2023-04-22T02:05:50.738Z,100513.47
2023-04-22T02:08:23.359Z,100506.34
2023-04-22T02:10:55.882Z,100509.13
2023-04-22T02:13:39.041Z,100513.19
2023-04-22T02:16:11.706Z,100509.63
2023-04-22T02:18:44.330Z,100514.44
2023-04-22T02:21:16.867Z,100505.28
2023-04-22T02:23:49.437Z,100501.72
2023-04-22T02:26:21.833Z,100499.69
2023-04-22T02:28:54.281Z,100493.84
2023-04-22T02:31:26.730Z,100500.22
2023-04-22T02:33:59.222Z,100496.63
2023-04-22T02:36:32.430Z,100497.88
2023-04-22T02:39:06.029Z,100485.97
2023-04-22T02:41:38.579Z,100493.53
2023-04-22T02:44:11.065Z,100487.19
2023-04-22T02:46:43.574Z,100487.19
2023-04-22T02:49:16.106Z,100481.31
2023-04-22T02:51:48.557Z,100479.81
2023-04-22T02:54:21.059Z,100479.81
2023-04-22T02:56:53.557Z,100488.19
2023-04-22T02:59:26.128Z,100482.59
2023-04-22T03:01:58.685Z,100489.41
2023-04-22T03:04:32.466Z,100493.47
2023-04-22T03:07:04.929Z,100491.91
2023-04-22T03:09:37.549Z,100491.16
2023-04-22T03:12:10.499Z,100483.25
2023-04-22T03:14:43.222Z,100473.63
2023-04-22T03:17:16.032Z,100477.66
2023-04-22T03:19:49.763Z,100470.53
2023-04-22T03:22:22.287Z,100466.19
2023-04-22T03:24:54.735Z,100463.41
2023-04-22T03:27:27.245Z,100463.41
2023-04-22T03:29:59.632Z,100454.75
2023-04-22T03:32:32.084Z,100451.97
2023-04-22T03:35:04.847Z,100453.22
2023-04-22T03:37:37.330Z,100448.38
2023-04-22T03:40:10.769Z,100442.03
2023-04-22T03:42:44.143Z,100434.94
2023-04-22T03:45:16.918Z,100438.97
2023-04-22T03:47:49.472Z,100444.56
2023-04-22T03:50:22.181Z,100436.66
2023-04-22T03:52:54.622Z,100435.88
2023-04-22T03:55:27.124Z,100435.88
2023-04-22T03:57:59.523Z,100428.28
2023-04-22T04:00:31.974Z,100423.19
2023-04-22T04:03:04.681Z,100421.66
2023-04-22T04:05:37.684Z,100423.19
2023-04-22T04:08:10.224Z,100426.47
2023-04-22T04:10:42.624Z,100417.31
2023-04-22T04:13:15.010Z,100412.97
2023-04-22T04:15:47.919Z,100414.53
2023-04-22T04:18:21.519Z,100408.19
2023-04-22T04:20:53.989Z,100407.91
2023-04-22T04:23:27.147Z,100404.31
2023-04-22T04:26:02.700Z,100403.56
2023-04-22T04:28:36.084Z,100408.38
2023-04-22T04:31:08.570Z,100408.38
2023-04-22T04:33:40.998Z,100418.78
2023-04-22T04:36:13.548Z,100417.22
2023-04-22T04:38:47.837Z,100413.69
2023-04-22T04:41:21.165Z,100426.09
2023-04-22T04:43:53.717Z,100426.09
2023-04-22T04:46:29.641Z,100424.56
2023-04-22T04:49:02.558Z,100423.78
2023-04-22T04:51:35.669Z,100418.22
2023-04-22T04:54:08.281Z,100422.25
2023-04-22T04:56:40.900Z,100423.78
2023-04-22T04:59:13.374Z,100423.03
2023-04-22T05:01:45.923Z,100423.03
2023-04-22T05:04:18.622Z,100423.03
2023-04-22T05:06:51.308Z,100421.47
2023-04-22T05:09:23.889Z,100426.28
2023-04-22T05:11:56.381Z,100414.38
2023-04-22T05:14:28.907Z,100415.91
2023-04-22T05:17:01.607Z,100417.16
2023-04-22T05:19:34.287Z,100404.72
2023-04-22T05:22:07.652Z,100407.53
2023-04-22T05:24:40.204Z,100415.13
2023-04-22T05:27:13.160Z,100414.38
2023-04-22T05:29:45.686Z,100417.16
2023-04-22T05:32:18.301Z,100409.56
2023-04-22T05:34:50.854Z,100415.13
2023-04-22T05:37:23.375Z,100417.16
2023-04-22T05:39:55.942Z,100411.06
2023-04-22T05:42:28.347Z,100414.66
2023-04-22T05:45:00.807Z,100411.88
2023-04-22T05:47:33.314Z,100418.22
2023-04-22T05:50:06.630Z,100409.38
2023-04-22T05:52:39.143Z,100414.16
2023-04-22T05:55:11.572Z,100420.53
2023-04-22T05:57:44.134Z,100410.88
2023-04-22T06:00:17.237Z,100408.84
2023-04-22T06:02:50.158Z,100407.63
2023-04-22T06:05:22.987Z,100403.84
2023-04-22T06:07:55.600Z,100404.91
2023-04-22T06:10:28.073Z,100403.16
2023-04-22T06:13:01.231Z,100403.25
2023-04-22T06:15:34.474Z,100413.00
2023-04-22T06:18:06.963Z,100419.16
2023-04-22T06:20:39.662Z,100414.88
2023-04-22T06:23:12.068Z,100410.63
2023-04-22T06:25:44.570Z,100407.16
2023-04-22T06:28:16.971Z,100403.69
2023-04-22T06:30:49.416Z,100410.59
2023-04-22T06:33:21.948Z,100411.16
2023-04-22T06:35:54.492Z,100402.84
2023-04-22T06:38:27.000Z,100404.94
2023-04-22T06:40:59.525Z,100399.13
2023-04-22T06:43:32.014Z,100394.91
2023-04-22T06:46:04.665Z,100390.63
2023-04-22T06:48:37.135Z,100381.53
2023-04-22T06:51:09.588Z,100381.34
2023-04-22T06:53:42.072Z,100388.25
2023-04-22T06:56:15.655Z,100383.97
2023-04-22T06:58:48.089Z,100379.72
2023-04-22T07:01:20.910Z,100376.19
2023-04-22T07:03:53.479Z,100376.19
2023-04-22T07:06:26.051Z,100378.56
2023-04-22T07:08:58.608Z,100389.06
2023-04-22T07:11:31.685Z,100386.84
2023-04-22T07:14:04.226Z,100385.84
2023-04-22T07:16:36.806Z,100385.13
2023-04-22T07:19:09.384Z,100382.38
2023-04-22T07:21:41.847Z,100372.78
2023-04-22T07:24:14.651Z,100377.69
2023-04-22T07:26:47.176Z,100369.31
2023-04-22T07:29:19.660Z,100377.50
2023-04-22T07:31:52.115Z,100380.06
2023-04-22T07:34:24.562Z,100385.44
2023-04-22T07:36:56.991Z,100380.38
2023-04-22T07:39:29.400Z,100382.44
2023-04-22T07:42:02.167Z,100376.63
2023-04-22T07:44:34.637Z,100377.94
2023-04-22T07:47:08.486Z,100384.56
2023-04-22T07:49:41.421Z,100388.41
2023-04-22T07:52:14.096Z,100394.28
2023-04-22T07:54:46.498Z,100382.09
2023-04-22T07:57:22.188Z,100367.09
2023-04-22T07:59:54.597Z,100372.19
2023-04-22T08:02:27.333Z,100373.72
2023-04-22T08:04:59.969Z,100366.13
2023-04-22T08:07:33.666Z,100355.16
2023-04-22T08:10:07.222Z,100365.09
2023-04-22T08:12:39.684Z,100353.41
2023-04-22T08:15:12.549Z,100354.16
2023-04-22T08:17:45.077Z,100342.22
2023-04-22T08:20:18.265Z,100342.97
2023-04-22T08:22:51.738Z,100334.09
2023-04-22T08:25:24.267Z,100344.00
2023-04-22T08:27:56.799Z,100346.81
2023-04-22T08:30:32.036Z,100343.50
2023-04-22T08:33:04.553Z,100338.66
2023-04-22T08:35:37.561Z,100341.00
2023-04-22T08:38:10.078Z,100331.31
2023-04-22T08:40:43.052Z,100326.50
2023-04-22T08:43:15.995Z,100318.88
2023-04-22T08:45:49.606Z,100313.28
2023-04-22T08:48:22.113Z,100310.47
2023-04-22T08:50:54.610Z,100303.34
2023-04-22T08:53:27.066Z,100300.53
2023-04-22T08:55:59.961Z,100303.34
2023-04-22T08:58:34.679Z,100301.81
2023-04-22T09:01:09.250Z,100301.03
2023-04-22T09:03:42.264Z,100296.22
2023-04-22T09:06:17.437Z,100299.78
2023-04-22T09:08:50.544Z,100302.56
2023-04-22T09:11:23.154Z,100311.72
2023-04-22T09:13:55.696Z,100320.13
2023-04-22T09:16:33.716Z,100314.53
2023-04-22T09:19:06.253Z,100309.69
2023-04-22T09:21:40.080Z,100307.69
2023-04-22T09:24:12.932Z,100297.72
2023-04-22T09:26:46.288Z,100299.28
2023-04-22T09:29:18.754Z,100292.88
2023-04-22T09:31:51.279Z,100297.72
2023-04-22T09:34:23.788Z,100292.88
2023-04-22T09:36:56.294Z,100290.09
2023-04-22T09:39:29.229Z,100290.63
2023-04-22T09:42:01.749Z,100290.63
2023-04-22T09:44:35.295Z,100299.00
2023-04-22T09:47:09.124Z,100279.88
2023-04-22T09:49:46.820Z,100289.06
2023-04-22T09:52:27.139Z,100300.25
2023-04-22T09:54:59.658Z,100304.31
2023-04-22T09:57:32.275Z,100298.72
2023-04-22T10:00:08.119Z,100297.16
2023-04-22T10:02:41.193Z,100299.47
2023-04-22T10:05:13.888Z,100292.63
2023-04-22T10:07:46.511Z,100303.34
2023-04-22T10:10:18.999Z,100300.78
2023-04-22T10:12:52.761Z,100298.25
2023-04-22T10:15:27.134Z,100289.88
2023-04-22T10:18:01.808Z,100301.06
2023-04-22T10:20:38.347Z,100289.88
2023-04-22T10:23:18.177Z,100294.19
2023-04-22T10:25:54.232Z,100297.25
2023-04-22T10:28:29.497Z,100290.88
2023-04-22T10:31:07.091Z,100302.84
2023-04-22T10:33:39.718Z,100306.44
2023-04-22T10:36:14.859Z,100300.31
2023-04-22T10:38:50.264Z,100300.31
2023-04-22T10:41:24.186Z,100283.78
2023-04-22T10:43:59.746Z,100278.19
2023-04-22T10:46:37.110Z,100275.38
2023-04-22T10:49:11.379Z,100266.97
2023-04-22T10:51:45.000Z,100276.66
2023-04-22T10:54:32.358Z,100273.88
2023-04-22T10:57:10.812Z,100279.19
2023-04-22T10:59:50.086Z,100276.41
2023-04-22T11:02:23.979Z,100280.44
2023-04-22T11:05:26.128Z,100287.81
2023-04-22T11:08:13.127Z,100285.53
2023-04-22T11:10:48.066Z,100286.53
2023-04-22T11:13:21.926Z,100285.00
2023-04-22T11:15:55.815Z,100289.06
2023-04-22T11:18:33.005Z,100284.72
2023-04-22T11:21:09.347Z,100282.41
2023-04-22T11:23:50.710Z,100278.84
2023-04-22T11:26:37.744Z,100278.84
2023-04-22T11:29:10.578Z,100276.81
2023-04-22T11:31:49.176Z,100282.91
2023-04-22T11:34:21.727Z,100283.69
2023-04-22T11:36:54.384Z,100286.72
2023-04-22T11:39:35.743Z,100285.16
2023-04-22T11:42:08.313Z,100287.97
2023-04-22T11:44:44.766Z,100286.44
2023-04-22T11:47:17.460Z,100293.56
2023-04-22T11:50:04.596Z,100286.44
2023-04-22T11:52:45.294Z,100291.28
2023-04-22T11:55:23.683Z,100289.75
2023-04-22T11:57:58.600Z,100291.28
2023-04-22T12:00:37.304Z,100287.97
2023-04-22T12:03:16.992Z,100285.16
2023-04-22T12:05:53.793Z,100286.72
2023-04-22T12:08:32.531Z,100292.31
2023-04-22T12:11:10.506Z,100288.75
2023-04-22T12:13:50.698Z,100290.75
2023-04-22T12:16:23.122Z,100294.09
2023-04-22T12:18:56.202Z,100301.72
2023-04-22T12:21:30.131Z,100296.13
2023-04-22T12:24:08.444Z,100294.84
2023-04-22T12:26:41.126Z,100300.19
2023-04-22T12:29:13.730Z,100296.63
2023-04-22T12:31:46.246Z,100291.78
2023-04-22T12:34:18.677Z,100289.75
2023-04-22T12:36:51.080Z,100291.78
2023-04-22T12:39:23.459Z,100290.25
2023-04-22T12:41:55.947Z,100293.06
2023-04-22T12:44:28.987Z,100298.38
2023-04-22T12:47:01.517Z,100304.47
2023-04-22T12:49:34.024Z,100314.91
2023-04-22T12:52:06.579Z,100316.94
2023-04-22T12:54:38.995Z,100321.75
2023-04-22T12:57:11.995Z,100330.16
2023-04-22T12:59:47.365Z,100330.91
2023-04-22T13:02:19.989Z,100344.16
2023-04-22T13:04:52.473Z,100339.84
2023-04-22T13:07:24.940Z,100344.69
2023-04-22T13:09:57.423Z,100338.28
2023-04-22T13:12:29.903Z,100358.41
2023-04-22T13:15:03.440Z,100353.56
2023-04-22T13:17:36.418Z,100335.22
2023-04-22T13:20:09.857Z,100347.97
2023-04-22T13:22:43.124Z,100342.38
2023-04-22T13:25:15.696Z,100336.78
2023-04-22T13:27:48.283Z,100339.56
2023-04-22T13:30:20.783Z,100335.50
2023-04-22T13:32:53.352Z,100329.63
2023-04-22T13:35:25.865Z,100335.22
2023-04-22T13:37:58.474Z,100335.22
2023-04-22T13:40:30.887Z,100335.75
2023-04-22T13:43:04.457Z,100338.53
2023-04-22T13:45:36.983Z,100343.34
2023-04-22T13:48:09.389Z,100334.94
2023-04-22T13:50:42.722Z,100330.63
2023-04-22T13:53:16.878Z,100330.63
2023-04-22T13:55:49.451Z,100329.88
2023-04-22T13:58:22.266Z,100325.53
2023-04-22T14:00:54.873Z,100326.03
2023-04-22T14:03:28.501Z,100337.25
2023-04-22T14:06:01.577Z,100321.97
2023-04-22T14:08:34.119Z,100324.75
2023-04-22T14:11:07.511Z,100321.22
2023-04-22T14:13:40.237Z,100330.09
2023-04-22T14:16:13.090Z,100319.66
2023-04-22T14:18:45.751Z,100324.50
2023-04-22T14:21:18.150Z,100324.50
2023-04-22T14:23:53.668Z,100328.56
2023-04-22T14:26:26.339Z,100336.19
2023-04-22T14:28:59.201Z,100336.97
2023-04-22T14:31:31.665Z,100327.78
2023-04-22T14:34:04.302Z,100332.63
2023-04-22T14:36:36.910Z,100332.63
2023-04-22T14:39:09.511Z,100338.22
2023-04-22T14:41:41.997Z,100338.22
2023-04-22T14:44:14.501Z,100337.94
2023-04-22T14:46:47.060Z,100335.16
2023-04-22T14:49:19.568Z,100335.16
2023-04-22T14:51:52.046Z,100335.91
2023-04-22T14:54:24.460Z,100335.16
2023-04-22T14:56:56.948Z,100339.97
2023-04-22T14:59:29.578Z,100339.97
2023-04-22T15:02:02.182Z,100344.81
2023-04-22T15:04:34.766Z,100328.78
2023-04-22T15:07:07.773Z,100339.97
2023-04-22T15:09:40.612Z,100330.06
2023-04-22T15:12:13.256Z,100328.53
2023-04-22T15:14:45.890Z,100336.16
2023-04-22T15:17:19.134Z,100329.00
2023-04-22T15:19:53.319Z,100329.00
2023-04-22T15:22:25.838Z,100332.31
2023-04-22T15:24:58.224Z,100337.13
2023-04-22T15:27:31.151Z,100327.97
2023-04-22T15:30:05.865Z,100331.28
2023-04-22T15:32:44.051Z,100324.91
2023-04-22T15:35:16.635Z,100331.28
2023-04-22T15:37:49.093Z,100326.94
2023-04-22T15:40:21.500Z,100329.47
2023-04-22T15:42:53.919Z,100324.63
2023-04-22T15:45:26.339Z,100322.63
2023-04-22T15:47:58.888Z,100323.88
2023-04-22T15:50:31.675Z,100316.75
2023-04-22T15:53:04.236Z,100309.63
2023-04-22T15:55:36.638Z,100302.00
2023-04-22T15:58:09.109Z,100298.44
2023-04-22T16:00:41.696Z,100302.50
2023-04-22T16:03:14.501Z,100302.50
2023-04-22T16:05:47.145Z,100305.78
2023-04-22T16:08:19.548Z,100305.03
2023-04-22T16:10:52.189Z,100310.63
2023-04-22T16:13:24.651Z,100303.47
2023-04-22T16:15:57.979Z,100309.06
2023-04-22T16:18:30.852Z,100306.28
2023-04-22T16:21:07.050Z,100309.06
2023-04-22T16:23:42.630Z,100302.72
2023-04-22T16:26:15.579Z,100302.72
2023-04-22T16:28:47.978Z,100304.00
2023-04-22T16:31:22.927Z,100323.59
2023-04-22T16:33:55.880Z,100336.78
2023-04-22T16:36:29.041Z,100363.22
2023-04-22T16:39:01.820Z,100361.97
2023-04-22T16:41:37.239Z,100353.28
2023-04-22T16:44:09.843Z,100359.16
2023-04-22T16:46:48.650Z,100369.59
2023-04-22T16:49:21.118Z,100358.88
2023-04-22T16:51:53.610Z,100354.84
2023-04-22T16:54:26.106Z,100359.69
2023-04-22T16:56:58.634Z,100362.97
2023-04-22T16:59:31.336Z,100365.75
2023-04-22T17:02:04.381Z,100374.16
2023-04-22T17:04:36.998Z,100378.47
2023-04-22T17:07:09.570Z,100381.25
2023-04-22T17:09:42.471Z,100384.56
2023-04-22T17:12:15.656Z,100382.53
2023-04-22T17:14:48.189Z,100398.84
2023-04-22T17:17:20.663Z,100403.91
2023-04-22T17:19:53.109Z,100400.34
2023-04-22T17:22:25.997Z,100403.66
2023-04-22T17:24:58.863Z,100402.88
2023-04-22T17:27:31.633Z,100403.38
2023-04-22T17:30:04.414Z,100410.25
2023-04-22T17:32:36.911Z,100418.34
2023-04-22T17:35:09.853Z,100409.69
2023-04-22T17:37:42.327Z,100420.13
2023-04-22T17:40:14.813Z,100419.84
2023-04-22T17:42:47.445Z,100421.09
2023-04-22T17:45:19.998Z,100427.97
2023-04-22T17:47:52.442Z,100428.44
2023-04-22T17:50:25.396Z,100421.03
2023-04-22T17:52:58.167Z,100427.88
2023-04-22T17:55:32.450Z,100434.00
2023-04-22T17:58:05.701Z,100451.25
2023-04-22T18:00:38.388Z,100459.66
2023-04-22T18:03:11.029Z,100459.66
2023-04-22T18:05:44.744Z,100449.22
2023-04-22T18:08:17.164Z,100450.97
2023-04-22T18:10:49.731Z,100452.25
2023-04-22T18:13:22.220Z,100451.47
2023-04-22T18:15:54.648Z,100447.63
2023-04-22T18:18:27.114Z,100464.41
2023-04-22T18:21:00.789Z,100470.00
2023-04-22T18:23:35.023Z,100474.06
2023-04-22T18:26:11.196Z,100474.06
2023-04-22T18:28:44.527Z,100482.94
2023-04-22T18:31:17.060Z,100480.63
2023-04-22T18:33:49.618Z,100494.59
2023-04-22T18:36:22.390Z,100497.41
2023-04-22T18:38:54.824Z,100500.19
2023-04-22T18:41:27.259Z,100511.88
2023-04-22T18:43:59.666Z,100501.19
2023-04-22T18:46:32.182Z,100503.97
2023-04-22T18:49:04.804Z,100519.22
2023-04-22T18:51:38.256Z,100516.91
2023-04-22T18:54:12.244Z,100514.56
2023-04-22T18:56:46.020Z,100520.16
2023-04-22T18:59:18.720Z,100517.09
2023-04-22T19:01:51.450Z,100522.69
2023-04-22T19:04:24.014Z,100535.91
2023-04-22T19:06:59.245Z,100541.97
2023-04-22T19:09:32.273Z,100541.97
2023-04-22T19:12:06.084Z,100544.47
2023-04-22T19:14:38.740Z,100544.47
2023-04-22T19:17:11.391Z,100550.56
2023-04-22T19:19:45.365Z,100552.59
2023-04-22T19:22:18.656Z,100564.28
2023-04-22T19:24:51.209Z,100555.59
2023-04-22T19:27:23.842Z,100559.16
2023-04-22T19:29:56.343Z,100563.19
2023-04-22T19:32:28.977Z,100556.84
2023-04-22T19:35:03.889Z,100562.91
2023-04-22T19:37:36.788Z,100562.91
2023-04-22T19:40:09.578Z,100558.59
2023-04-22T19:42:42.029Z,100565.47
2023-04-22T19:45:14.467Z,100573.84
2023-04-22T19:47:47.099Z,100583.00
2023-04-22T19:50:19.886Z,100569.50
2023-04-22T19:53:00.635Z,100570.75
2023-04-22T19:55:33.725Z,100562.84
2023-04-22T19:58:06.691Z,100564.88
2023-04-22T20:00:39.751Z,100556.22
2023-04-22T20:03:14.364Z,100559.00
2023-04-22T20:05:48.771Z,100553.41
2023-04-22T20:08:27.138Z,100554.66
2023-04-22T20:11:00.515Z,100554.66
2023-04-22T20:13:33.271Z,100558.72
2023-04-22T20:16:06.066Z,100551.59
2023-04-22T20:18:38.628Z,100547.25
2023-04-22T20:21:11.078Z,100548.03
2023-04-22T20:23:45.273Z,100550.06
2023-04-22T20:26:19.857Z,100552.09
2023-04-22T20:28:53.694Z,100550.53
2023-04-22T20:31:26.417Z,100550.53
2023-04-22T20:33:59.154Z,100545.44
2023-04-22T20:36:32.777Z,100542.63
2023-04-22T20:39:05.856Z,100541.09
2023-04-22T20:41:41.406Z,100545.94
2023-04-22T20:44:14.125Z,100551.53
2023-04-22T20:46:46.810Z,100545.13
2023-04-22T20:49:19.333Z,100543.63
2023-04-22T20:51:52.911Z,100553.28
2023-04-22T20:54:43.562Z,100553.28
2023-04-22T20:57:16.080Z,100552.47
2023-04-22T20:59:48.648Z,100561.38
2023-04-22T21:02:21.808Z,100561.38
2023-04-22T21:04:54.590Z,100559.81
2023-04-22T21:07:30.713Z,100559.81
2023-04-22T21:10:03.446Z,100557.78
2023-04-22T21:12:36.597Z,100562.88
2023-04-22T21:15:09.663Z,100554.03
2023-04-22T21:17:51.552Z,100557.88
2023-04-22T21:20:27.097Z,100556.88
2023-04-22T21:23:01.720Z,100563.06
2023-04-22T21:25:35.748Z,100565.66
2023-04-22T21:28:08.606Z,100567.47
2023-04-22T21:30:41.545Z,100561.69
2023-04-22T21:33:13.958Z,100564.56
2023-04-22T21:35:47.796Z,100560.00
2023-04-22T21:38:20.515Z,100568.97
2023-04-22T21:40:52.992Z,100564.72
2023-04-22T21:43:25.694Z,100565.78
2023-04-22T21:45:58.134Z,100557.94
2023-04-22T21:48:30.752Z,100564.09
2023-04-22T21:51:04.028Z,100561.59
2023-04-22T21:53:36.570Z,100572.56
2023-04-22T21:56:08.995Z,100563.69
2023-04-22T21:58:41.901Z,100565.50
2023-04-22T22:01:14.446Z,100565.78
2023-04-22T22:03:47.265Z,100563.25
2023-04-22T22:06:20.962Z,100560.72
2023-04-22T22:08:55.911Z,100567.88
2023-04-22T22:11:31.337Z,100570.69
2023-04-22T22:14:07.166Z,100566.59
2023-04-22T22:16:39.825Z,100570.94
2023-04-22T22:19:16.168Z,100571.72
2023-04-22T22:21:48.630Z,100559.22
2023-04-22T22:24:23.230Z,100565.34
2023-04-22T22:26:57.885Z,100557.47
2023-04-22T22:29:30.491Z,100563.81
2023-04-22T22:32:03.251Z,100567.88
2023-04-22T22:34:35.678Z,100577.81
2023-04-22T22:37:08.382Z,100578.28
2023-04-22T22:39:41.007Z,100583.13
2023-04-22T22:42:14.608Z,100578.00
2023-04-22T22:44:47.043Z,100576.00
2023-04-22T22:47:19.629Z,100564.81
2023-04-22T22:49:52.241Z,100560.19
2023-04-22T22:52:24.760Z,100569.31
2023-04-22T22:54:57.428Z,100564.25
2023-04-22T22:57:29.891Z,100565.50
2023-04-22T23:00:05.960Z,100555.56
2023-04-22T23:02:38.663Z,100559.63
2023-04-22T23:05:11.317Z,100549.22
2023-04-22T23:07:43.835Z,100546.91
2023-04-22T23:10:16.576Z,100546.13
2023-04-22T23:12:49.408Z,100550.94
2023-04-22T23:15:22.162Z,100549.41
2023-04-22T23:17:54.665Z,100547.88
2023-04-22T23:20:27.593Z,100553.97
2023-04-22T23:23:02.463Z,100550.41
2023-04-22T23:25:35.185Z,100553.69
2023-04-22T23:28:07.957Z,100545.78
2023-04-22T23:30:41.358Z,100549.06
2023-04-22T23:33:16.704Z,100547.53
2023-04-22T23:35:51.221Z,100539.63
2023-04-22T23:38:23.727Z,100536.53
2023-04-22T23:40:56.239Z,100539.34
2023-04-22T23:43:30.124Z,100540.63
2023-04-22T23:46:02.798Z,100539.06
2023-04-22T23:48:36.027Z,100537.53
2023-04-22T23:51:12.785Z,100528.88
2023-04-22T23:53:47.057Z,100522.50
2023-04-22T23:56:22.249Z,100527.03
2023-04-22T23:58:54.987Z,100517.84
